createdAt,value
2023-12-12T00:00:14.519Z,9.04
2023-12-12T00:01:14.622Z,9.08
2023-12-12T00:02:14.548Z,9.10
2023-12-12T00:03:14.540Z,9.10
2023-12-12T00:04:14.573Z,9.10
2023-12-12T00:05:14.527Z,9.10
2023-12-12T00:06:14.477Z,9.08
2023-12-12T00:07:14.513Z,9.11
2023-12-12T00:08:14.500Z,9.11
2023-12-12T00:09:14.575Z,9.11
2023-12-12T00:10:14.446Z,9.13
2023-12-12T00:11:14.404Z,9.13
2023-12-12T00:12:14.417Z,9.13
2023-12-12T00:13:14.461Z,9.13
2023-12-12T00:14:14.445Z,9.13
2023-12-12T00:15:14.379Z,9.13
2023-12-12T00:16:14.386Z,9.14
2023-12-12T00:17:14.388Z,9.16
2023-12-12T00:18:14.402Z,9.16
2023-12-12T00:19:14.455Z,9.16
2023-12-12T00:20:14.360Z,9.14
2023-12-12T00:21:14.304Z,9.18
2023-12-12T00:22:14.396Z,9.18
2023-12-12T00:23:14.279Z,9.16
2023-12-12T00:24:14.263Z,9.16
2023-12-12T00:25:14.316Z,9.14
2023-12-12T00:26:14.322Z,9.16
2023-12-12T00:27:14.263Z,9.13
2023-12-12T00:28:14.249Z,9.14
2023-12-12T00:29:14.241Z,9.14
2023-12-12T00:30:14.196Z,9.11
2023-12-12T00:31:14.225Z,9.10
2023-12-12T00:32:14.273Z,9.11
2023-12-12T00:33:14.251Z,9.08
2023-12-12T00:34:14.252Z,9.06
2023-12-12T00:35:14.215Z,9.04
2023-12-12T00:36:14.152Z,9.04
2023-12-12T00:37:14.177Z,9.04
2023-12-12T00:38:14.138Z,9.04
2023-12-12T00:39:14.124Z,9.04
2023-12-12T00:40:14.153Z,9.06
2023-12-12T00:41:14.109Z,9.06
2023-12-12T00:42:14.088Z,9.06
2023-12-12T00:43:14.142Z,9.10
2023-12-12T00:44:14.085Z,9.11
2023-12-12T00:45:14.051Z,9.13
2023-12-12T00:46:14.120Z,9.14
2023-12-12T00:47:14.058Z,9.16
2023-12-12T00:48:14.132Z,9.18
2023-12-12T00:49:14.235Z,9.19
2023-12-12T00:50:14.010Z,9.19
2023-12-12T00:51:14.016Z,9.21
2023-12-12T00:52:14.041Z,9.22
2023-12-12T00:53:14.004Z,9.21
2023-12-12T00:54:14.015Z,9.22
2023-12-12T00:55:13.961Z,9.23
2023-12-12T00:56:13.946Z,9.22
2023-12-12T00:57:13.929Z,9.26
2023-12-12T00:58:13.951Z,9.23
2023-12-12T00:59:13.925Z,9.22
2023-12-12T01:00:13.979Z,9.21
2023-12-12T01:01:13.985Z,9.18
2023-12-12T01:02:13.878Z,9.18
2023-12-12T01:03:13.946Z,9.14
2023-12-12T01:04:14.077Z,9.11
2023-12-12T01:05:13.959Z,9.10
2023-12-12T01:06:13.861Z,9.04
2023-12-12T01:07:13.883Z,9.03
2023-12-12T01:08:13.823Z,9.03
2023-12-12T01:09:13.830Z,8.97
2023-12-12T01:10:13.855Z,8.95
2023-12-12T01:11:13.863Z,8.95
2023-12-12T01:12:13.816Z,8.95
2023-12-12T01:13:13.820Z,8.94
2023-12-12T01:14:13.770Z,8.94
2023-12-12T01:15:13.781Z,8.94
2023-12-12T01:16:13.793Z,8.94
2023-12-12T01:17:13.757Z,8.91
2023-12-12T01:18:13.796Z,8.91
2023-12-12T01:19:13.849Z,8.91
2023-12-12T01:20:13.726Z,8.89
2023-12-12T01:21:13.718Z,8.91
2023-12-12T01:22:13.749Z,8.89
2023-12-12T01:23:13.676Z,8.89
2023-12-12T01:24:13.675Z,8.89
2023-12-12T01:25:13.714Z,8.89
2023-12-12T01:26:13.656Z,8.89
2023-12-12T01:27:13.663Z,8.89
2023-12-12T01:28:13.662Z,8.92
2023-12-12T01:29:13.618Z,8.94
2023-12-12T01:30:13.595Z,8.94
2023-12-12T01:31:13.670Z,8.95
2023-12-12T01:32:13.588Z,8.95
2023-12-12T01:33:13.576Z,8.94
2023-12-12T01:34:13.655Z,8.95
2023-12-12T01:35:13.606Z,8.92
2023-12-12T01:36:13.557Z,8.91
2023-12-12T01:37:13.591Z,8.91
2023-12-12T01:38:13.529Z,8.91
2023-12-12T01:39:13.503Z,8.88
2023-12-12T01:40:13.528Z,8.88
2023-12-12T01:41:13.511Z,8.87
2023-12-12T01:42:13.508Z,8.85
2023-12-12T01:43:13.482Z,8.87
2023-12-12T01:44:13.465Z,8.87
2023-12-12T01:45:14.479Z,8.87
2023-12-12T01:46:13.637Z,8.87
2023-12-12T01:47:13.446Z,8.89
2023-12-12T01:48:13.507Z,8.91
2023-12-12T01:49:13.522Z,8.92
2023-12-12T01:50:13.400Z,8.94
2023-12-12T01:51:13.403Z,8.95
2023-12-12T01:52:13.456Z,8.97
2023-12-12T01:53:13.387Z,9.00
2023-12-12T01:54:13.355Z,9.02
2023-12-12T01:55:14.122Z,9.02
2023-12-12T01:56:13.350Z,9.04
2023-12-12T01:57:13.331Z,9.06
2023-12-12T01:58:13.374Z,9.08
2023-12-12T01:59:13.324Z,9.06
2023-12-12T02:00:13.309Z,9.08
2023-12-12T02:01:13.590Z,9.08
2023-12-12T02:02:13.280Z,9.08
2023-12-12T02:03:13.303Z,9.10
2023-12-12T02:04:13.328Z,9.11
2023-12-12T02:05:13.335Z,9.13
2023-12-12T02:06:13.272Z,9.14
2023-12-12T02:07:13.282Z,9.16
2023-12-12T02:08:13.249Z,9.18
2023-12-12T02:09:13.215Z,9.18
2023-12-12T02:10:13.253Z,9.21
2023-12-12T02:11:13.186Z,9.19
2023-12-12T02:12:13.185Z,9.21
2023-12-12T02:14:40.922Z,9.22
2023-12-12T02:14:46.278Z,9.22
2023-12-12T02:15:46.295Z,9.22
2023-12-12T02:16:46.268Z,9.25
2023-12-12T02:17:46.330Z,9.23
2023-12-12T02:18:46.404Z,9.23
2023-12-12T02:19:46.277Z,9.25
2023-12-12T02:20:46.224Z,9.25
2023-12-12T02:21:46.213Z,9.26
2023-12-12T02:22:46.233Z,9.28
2023-12-12T02:23:46.202Z,9.26
2023-12-12T02:24:46.190Z,9.28
2023-12-12T02:25:46.160Z,9.26
2023-12-12T02:26:46.165Z,9.28
2023-12-12T02:27:46.157Z,9.28
2023-12-12T02:28:46.185Z,9.29
2023-12-12T02:29:46.140Z,9.29
2023-12-12T02:30:46.139Z,9.29
2023-12-12T02:31:46.118Z,9.29
2023-12-12T02:32:46.160Z,9.31
2023-12-12T02:33:46.183Z,9.32
2023-12-12T02:34:46.090Z,9.34
2023-12-12T02:35:46.070Z,9.32
2023-12-12T02:36:46.109Z,9.32
2023-12-12T02:37:46.105Z,9.36
2023-12-12T02:38:46.055Z,9.34
2023-12-12T02:39:46.038Z,9.34
2023-12-12T02:40:46.080Z,9.36
2023-12-12T02:41:46.018Z,9.34
2023-12-12T02:42:46.017Z,9.34
2023-12-12T02:43:46.043Z,9.36
2023-12-12T02:44:45.981Z,9.36
2023-12-12T02:45:45.985Z,9.34
2023-12-12T02:46:45.988Z,9.36
2023-12-12T02:47:45.995Z,9.32
2023-12-12T02:48:46.005Z,9.31
2023-12-12T02:49:45.994Z,9.29
2023-12-12T02:50:45.911Z,9.28
2023-12-12T02:51:45.933Z,9.26
2023-12-12T02:52:45.917Z,9.28
2023-12-12T02:53:45.911Z,9.26
2023-12-12T02:54:45.915Z,9.25
2023-12-12T02:55:45.873Z,9.22
2023-12-12T02:56:45.861Z,9.19
2023-12-12T02:57:45.878Z,9.16
2023-12-12T02:58:45.869Z,9.14
2023-12-12T02:59:45.865Z,9.11
2023-12-12T03:00:45.862Z,9.06
2023-12-12T03:01:45.847Z,9.03
2023-12-12T03:02:45.810Z,9.02
2023-12-12T03:03:45.843Z,8.94
2023-12-12T03:04:45.938Z,8.92
2023-12-12T03:05:45.823Z,8.88
2023-12-12T03:06:45.766Z,8.87
2023-12-12T03:07:45.769Z,8.85
2023-12-12T03:08:45.854Z,8.84
2023-12-12T03:09:45.722Z,8.84
2023-12-12T03:10:45.766Z,8.85
2023-12-12T03:11:45.699Z,8.85
2023-12-12T03:12:45.709Z,8.85
2023-12-12T03:13:45.708Z,8.85
2023-12-12T03:14:45.684Z,8.85
2023-12-12T03:15:45.691Z,8.82
2023-12-12T03:16:45.693Z,8.81
2023-12-12T03:17:45.725Z,8.79
2023-12-12T03:18:45.694Z,8.79
2023-12-12T03:19:45.725Z,8.81
2023-12-12T03:20:45.654Z,8.79
2023-12-12T03:21:45.616Z,8.79
2023-12-12T03:22:45.586Z,8.78
2023-12-12T03:23:45.570Z,8.78
2023-12-12T03:24:45.563Z,8.79
2023-12-12T03:25:45.549Z,8.76
2023-12-12T03:26:45.582Z,8.76
2023-12-12T03:27:45.557Z,8.74
2023-12-12T03:28:45.530Z,8.73
2023-12-12T03:29:45.531Z,8.71
2023-12-12T03:30:45.539Z,8.71
2023-12-12T03:31:45.648Z,8.71
2023-12-12T03:32:45.583Z,8.71
2023-12-12T03:33:45.529Z,8.71
2023-12-12T03:34:45.552Z,8.73
2023-12-12T03:35:45.453Z,8.73
2023-12-12T03:36:45.476Z,8.73
2023-12-12T03:37:45.507Z,8.70
2023-12-12T03:38:45.428Z,8.67
2023-12-12T03:39:45.430Z,8.63
2023-12-12T03:40:45.403Z,8.61
2023-12-12T03:41:45.400Z,8.61
2023-12-12T03:42:45.385Z,8.63
2023-12-12T03:43:45.401Z,8.63
2023-12-12T03:44:45.375Z,8.66
2023-12-12T03:45:45.354Z,8.66
2023-12-12T03:46:45.367Z,8.67
2023-12-12T03:47:45.370Z,8.69
2023-12-12T03:48:45.349Z,8.67
2023-12-12T03:49:45.382Z,8.69
2023-12-12T03:50:45.319Z,8.69
2023-12-12T03:51:45.293Z,8.69
2023-12-12T03:52:45.287Z,8.70
2023-12-12T03:53:45.270Z,8.67
2023-12-12T03:54:45.260Z,8.66
2023-12-12T03:55:45.255Z,8.64
2023-12-12T03:56:45.250Z,8.63
2023-12-12T03:57:45.253Z,8.60
2023-12-12T03:58:45.234Z,8.58
2023-12-12T03:59:45.287Z,8.55
2023-12-12T04:00:45.208Z,8.53
2023-12-12T04:01:45.266Z,8.53
2023-12-12T04:02:45.227Z,8.49
2023-12-12T04:03:45.210Z,8.48
2023-12-12T04:04:45.170Z,8.45
2023-12-12T04:05:45.213Z,8.44
2023-12-12T04:06:45.159Z,8.41
2023-12-12T04:07:45.192Z,8.41
2023-12-12T04:08:45.115Z,8.38
2023-12-12T04:09:45.112Z,8.44
2023-12-12T04:10:45.087Z,8.41
2023-12-12T04:11:45.083Z,8.44
2023-12-12T04:12:45.116Z,8.42
2023-12-12T04:13:45.092Z,8.44
2023-12-12T04:14:45.065Z,8.45
2023-12-12T04:15:45.069Z,8.44
2023-12-12T04:16:45.062Z,8.44
2023-12-12T04:17:45.105Z,8.42
2023-12-12T04:18:45.127Z,8.44
2023-12-12T04:19:45.066Z,8.46
2023-12-12T04:20:45.010Z,8.48
2023-12-12T04:21:44.995Z,8.49
2023-12-12T04:22:44.990Z,8.51
2023-12-12T04:23:45.000Z,8.52
2023-12-12T04:24:44.975Z,8.52
2023-12-12T04:25:44.999Z,8.53
2023-12-12T04:26:44.930Z,8.52
2023-12-12T04:27:44.936Z,8.49
2023-12-12T04:28:44.942Z,8.49
2023-12-12T04:29:44.925Z,8.49
2023-12-12T04:30:44.910Z,8.49
2023-12-12T04:31:44.910Z,8.49
2023-12-12T04:32:44.923Z,8.49
2023-12-12T04:33:44.962Z,8.51
2023-12-12T04:34:44.889Z,8.51
2023-12-12T04:35:44.850Z,8.51
2023-12-12T04:36:44.827Z,8.51
2023-12-12T04:37:44.865Z,8.51
2023-12-12T04:38:44.824Z,8.52
2023-12-12T04:39:44.843Z,8.52
2023-12-12T04:40:44.797Z,8.53
2023-12-12T04:41:44.808Z,8.53
2023-12-12T04:42:44.800Z,8.55
2023-12-12T04:43:44.805Z,8.56
2023-12-12T04:44:44.802Z,8.60
2023-12-12T04:45:44.759Z,8.60
2023-12-12T04:46:44.821Z,8.60
2023-12-12T04:47:44.828Z,8.61
2023-12-12T04:48:44.792Z,8.64
2023-12-12T04:49:44.789Z,8.64
2023-12-12T04:50:44.694Z,8.67
2023-12-12T04:51:44.711Z,8.67
2023-12-12T04:52:44.664Z,8.70
2023-12-12T04:53:44.672Z,8.70
2023-12-12T04:54:44.672Z,8.74
2023-12-12T04:55:44.680Z,8.74
2023-12-12T04:56:44.656Z,8.74
2023-12-12T04:57:44.630Z,8.76
2023-12-12T04:58:44.626Z,8.76
2023-12-12T04:59:44.628Z,8.76
2023-12-12T05:00:44.635Z,8.78
2023-12-12T05:01:44.725Z,8.79
2023-12-12T05:02:44.583Z,8.81
2023-12-12T05:03:44.620Z,8.79
2023-12-12T05:04:44.554Z,8.79
2023-12-12T05:05:44.581Z,8.81
2023-12-12T05:06:44.572Z,8.78
2023-12-12T05:07:44.649Z,8.79
2023-12-12T05:08:44.522Z,8.79
2023-12-12T05:09:44.512Z,8.81
2023-12-12T05:10:44.612Z,8.78
2023-12-12T05:11:44.487Z,8.78
2023-12-12T05:12:44.461Z,8.81
2023-12-12T05:13:44.546Z,8.79
2023-12-12T05:14:44.439Z,8.79
2023-12-12T05:15:44.474Z,8.78
2023-12-12T05:16:53.736Z,8.79
2023-12-12T05:17:44.651Z,8.76
2023-12-12T05:18:44.524Z,8.74
2023-12-12T05:19:44.569Z,8.74
2023-12-12T05:20:44.449Z,8.71
2023-12-12T05:21:44.404Z,8.70
2023-12-12T05:22:44.445Z,8.69
2023-12-12T05:23:44.377Z,8.67
2023-12-12T05:24:44.354Z,8.66
2023-12-12T05:25:44.468Z,8.69
2023-12-12T05:26:44.395Z,8.67
2023-12-12T05:27:44.326Z,8.66
2023-12-12T05:28:44.306Z,8.69
2023-12-12T05:29:44.299Z,8.69
2023-12-12T05:30:44.350Z,8.69
2023-12-12T05:31:44.337Z,8.71
2023-12-12T05:32:44.355Z,8.71
2023-12-12T05:33:44.426Z,8.73
2023-12-12T05:34:44.315Z,8.71
2023-12-12T05:35:44.246Z,8.74
2023-12-12T05:36:44.273Z,8.74
2023-12-12T05:37:44.298Z,8.74
2023-12-12T05:38:44.224Z,8.74
2023-12-12T05:39:44.192Z,8.76
2023-12-12T05:40:44.221Z,8.74
2023-12-12T05:41:44.185Z,8.76
2023-12-12T05:42:44.196Z,8.74
2023-12-12T05:43:44.176Z,8.76
2023-12-12T05:44:44.154Z,8.76
2023-12-12T05:45:44.149Z,8.76
2023-12-12T05:46:44.145Z,8.76
2023-12-12T05:47:44.213Z,8.76
2023-12-12T05:48:44.263Z,8.76
2023-12-12T05:49:44.177Z,8.74
2023-12-12T05:50:44.954Z,8.74
2023-12-12T05:51:44.081Z,8.74
2023-12-12T05:52:44.106Z,8.76
2023-12-12T05:53:44.055Z,8.73
2023-12-12T05:54:44.093Z,8.76
2023-12-12T05:55:44.058Z,8.73
2023-12-12T05:56:44.027Z,8.73
2023-12-12T05:57:44.051Z,8.73
2023-12-12T05:58:44.035Z,8.73
2023-12-12T05:59:44.013Z,8.73
2023-12-12T06:00:44.014Z,8.71
2023-12-12T06:01:44.305Z,8.73
2023-12-12T06:02:44.009Z,8.74
2023-12-12T06:03:45.577Z,8.73
2023-12-12T06:04:44.126Z,8.71
2023-12-12T06:05:43.951Z,8.73
2023-12-12T06:06:44.202Z,8.74
2023-12-12T06:07:44.018Z,8.74
2023-12-12T06:08:43.906Z,8.73
2023-12-12T06:09:43.899Z,8.73
2023-12-12T06:10:43.905Z,8.73
2023-12-12T06:11:43.879Z,8.71
2023-12-12T06:12:43.877Z,8.73
2023-12-12T06:13:43.890Z,8.70
2023-12-12T06:14:43.869Z,8.69
2023-12-12T06:15:43.827Z,8.69
2023-12-12T06:16:43.944Z,8.71
2023-12-12T06:17:43.863Z,8.69
2023-12-12T06:18:44.169Z,8.71
2023-12-12T06:19:43.873Z,8.71
2023-12-12T06:20:43.774Z,8.70
2023-12-12T06:21:43.769Z,8.73
2023-12-12T06:22:43.826Z,8.71
2023-12-12T06:23:43.796Z,8.70
2023-12-12T06:24:43.746Z,8.71
2023-12-12T06:25:43.769Z,8.71
2023-12-12T06:26:43.729Z,8.71
2023-12-12T06:27:43.715Z,8.73
2023-12-12T06:28:43.746Z,8.73
2023-12-12T06:29:43.833Z,8.73
2023-12-12T06:30:43.761Z,8.71
2023-12-12T06:31:43.792Z,8.73
2023-12-12T06:32:43.945Z,8.73
2023-12-12T06:33:43.808Z,8.73
2023-12-12T06:34:43.860Z,8.73
2023-12-12T06:35:43.633Z,8.70
2023-12-12T06:36:43.625Z,8.71
2023-12-12T06:37:43.649Z,8.71
2023-12-12T06:38:43.598Z,8.69
2023-12-12T06:39:43.624Z,8.69
2023-12-12T06:40:43.617Z,8.69
2023-12-12T06:41:43.667Z,8.69
2023-12-12T06:42:43.569Z,8.67
2023-12-12T06:43:43.557Z,8.67
2023-12-12T06:44:43.558Z,8.69
2023-12-12T06:45:43.526Z,8.67
2023-12-12T06:46:43.589Z,8.67
2023-12-12T06:47:43.552Z,8.66
2023-12-12T06:48:43.520Z,8.66
2023-12-12T06:49:45.950Z,8.66
2023-12-12T06:50:43.478Z,8.64
2023-12-12T06:51:43.473Z,8.63
2023-12-12T06:52:43.502Z,8.61
2023-12-12T06:53:43.449Z,8.61
2023-12-12T06:54:43.465Z,8.61
2023-12-12T06:55:43.452Z,8.63
2023-12-12T06:56:43.401Z,8.61
2023-12-12T06:57:43.414Z,8.60
2023-12-12T06:58:43.437Z,8.61
2023-12-12T06:59:43.390Z,8.63
2023-12-12T07:00:43.421Z,8.63
2023-12-12T07:01:43.488Z,8.61
2023-12-12T07:02:43.392Z,8.63
2023-12-12T07:03:43.404Z,8.64
2023-12-12T07:04:43.373Z,8.63
2023-12-12T07:05:43.463Z,8.64
2023-12-12T07:06:43.378Z,8.64
2023-12-12T07:07:43.354Z,8.63
2023-12-12T07:08:43.307Z,8.63
2023-12-12T07:09:43.315Z,8.61
2023-12-12T07:10:43.369Z,8.61
2023-12-12T07:11:43.265Z,8.58
2023-12-12T07:12:43.256Z,8.56
2023-12-12T07:13:43.261Z,8.55
2023-12-12T07:14:43.263Z,8.52
2023-12-12T07:15:43.247Z,8.52
2023-12-12T07:16:43.276Z,8.51
2023-12-12T07:17:43.265Z,8.51
2023-12-12T07:18:43.306Z,8.46
2023-12-12T07:19:43.256Z,8.45
2023-12-12T07:20:43.195Z,8.45
2023-12-12T07:21:43.153Z,8.42
2023-12-12T07:22:43.178Z,8.41
2023-12-12T07:23:43.137Z,8.41
2023-12-12T07:24:43.130Z,8.38
2023-12-12T07:25:43.181Z,8.37
2023-12-12T07:26:43.115Z,8.36
2023-12-12T07:27:43.118Z,8.36
2023-12-12T07:28:43.160Z,8.36
2023-12-12T07:29:43.146Z,8.34
2023-12-12T07:30:43.133Z,8.34
2023-12-12T07:31:43.126Z,8.34
2023-12-12T07:32:43.087Z,8.36
2023-12-12T07:33:43.104Z,8.34
2023-12-12T07:34:43.107Z,8.33
2023-12-12T07:35:43.030Z,8.33
2023-12-12T07:36:43.042Z,8.33
2023-12-12T07:37:43.134Z,8.31
2023-12-12T07:38:42.985Z,8.33
2023-12-12T07:39:42.989Z,8.31
2023-12-12T07:40:44.955Z,8.31
2023-12-12T07:41:42.971Z,8.30
2023-12-12T07:42:42.944Z,8.28
2023-12-12T07:43:42.978Z,8.27
2023-12-12T07:44:42.930Z,8.27
2023-12-12T07:45:42.963Z,8.27
2023-12-12T07:46:42.984Z,8.27
2023-12-12T07:47:44.110Z,8.27
2023-12-12T07:48:42.972Z,8.28
2023-12-12T07:49:43.006Z,8.28
2023-12-12T07:50:42.874Z,8.30
2023-12-12T07:51:42.869Z,8.28
2023-12-12T07:52:42.948Z,8.28
2023-12-12T07:53:42.844Z,8.28
2023-12-12T07:54:42.859Z,8.28
2023-12-12T07:55:42.873Z,8.28
2023-12-12T07:56:42.814Z,8.30
2023-12-12T07:57:42.821Z,8.30
2023-12-12T07:58:42.858Z,8.31
2023-12-12T07:59:42.764Z,8.34
2023-12-12T08:00:42.805Z,8.34
2023-12-12T08:01:42.912Z,8.36
2023-12-12T08:02:42.756Z,8.37
2023-12-12T08:03:42.811Z,8.37
2023-12-12T08:04:42.784Z,8.42
2023-12-12T08:05:42.767Z,8.41
2023-12-12T08:06:42.711Z,8.45
2023-12-12T08:07:42.845Z,8.46
2023-12-12T08:08:42.702Z,8.46
2023-12-12T08:09:42.725Z,8.48
2023-12-12T08:10:42.725Z,8.48
2023-12-12T08:11:42.666Z,8.49
2023-12-12T08:12:42.657Z,8.52
2023-12-12T08:13:42.959Z,8.53
2023-12-12T08:14:44.114Z,8.53
2023-12-12T08:15:42.743Z,8.55
2023-12-12T08:16:42.656Z,8.56
2023-12-12T08:17:42.640Z,8.58
2023-12-12T08:18:42.610Z,8.58
2023-12-12T08:19:42.688Z,8.56
2023-12-12T08:20:42.580Z,8.56
2023-12-12T08:21:42.591Z,8.58
2023-12-12T08:22:42.643Z,8.58
2023-12-12T08:23:42.542Z,8.61
2023-12-12T08:24:42.542Z,8.63
2023-12-12T08:25:42.524Z,8.60
2023-12-12T08:26:42.536Z,8.61
2023-12-12T08:27:42.481Z,8.61
2023-12-12T08:28:42.533Z,8.61
2023-12-12T08:29:42.462Z,8.61
2023-12-12T08:30:42.493Z,8.64
2023-12-12T08:31:42.530Z,8.61
2023-12-12T08:32:42.548Z,8.61
2023-12-12T08:33:42.480Z,8.64
2023-12-12T08:34:42.454Z,8.63
2023-12-12T08:35:42.421Z,8.67
2023-12-12T08:36:42.414Z,8.69
2023-12-12T08:37:42.497Z,8.69
2023-12-12T08:38:42.433Z,8.67
2023-12-12T08:39:42.374Z,8.71
2023-12-12T08:40:42.419Z,8.70
2023-12-12T08:41:42.354Z,8.73
2023-12-12T08:42:42.347Z,8.74
2023-12-12T08:43:42.353Z,8.73
2023-12-12T08:44:42.388Z,8.74
2023-12-12T08:45:42.319Z,8.78
2023-12-12T08:46:42.356Z,8.81
2023-12-12T08:47:42.339Z,8.82
2023-12-12T08:48:42.346Z,8.85
2023-12-12T08:49:42.409Z,8.85
2023-12-12T08:50:42.290Z,8.87
2023-12-12T08:51:42.245Z,8.87
2023-12-12T08:52:42.359Z,8.91
2023-12-12T08:53:42.239Z,8.91
2023-12-12T08:54:42.218Z,8.94
2023-12-12T08:55:42.357Z,8.95
2023-12-12T08:56:42.209Z,8.94
2023-12-12T08:57:42.196Z,8.95
2023-12-12T08:58:42.635Z,8.97
2023-12-12T08:59:42.196Z,8.94
2023-12-12T09:00:42.239Z,8.97
2023-12-12T09:01:42.334Z,8.99
2023-12-12T09:02:42.160Z,9.00
2023-12-12T09:03:42.177Z,8.99
2023-12-12T09:04:42.194Z,8.99
2023-12-12T09:05:42.222Z,9.02
2023-12-12T09:06:42.094Z,9.04
2023-12-12T09:07:42.205Z,9.04
2023-12-12T09:08:42.099Z,9.06
2023-12-12T09:09:42.098Z,9.08
2023-12-12T09:10:42.109Z,9.11
2023-12-12T09:11:42.084Z,9.14
2023-12-12T09:12:42.079Z,9.16
2023-12-12T09:13:42.091Z,9.18
2023-12-12T09:14:42.036Z,9.19
2023-12-12T09:15:42.011Z,9.19
2023-12-12T09:16:42.034Z,9.21
2023-12-12T09:17:42.032Z,9.22
2023-12-12T09:18:42.196Z,9.23
2023-12-12T09:19:42.107Z,9.23
2023-12-12T09:20:42.084Z,9.25
2023-12-12T09:21:41.946Z,9.25
2023-12-12T09:22:41.964Z,9.26
2023-12-12T09:23:42.118Z,9.29
2023-12-12T09:24:41.959Z,9.31
2023-12-12T09:25:41.934Z,9.31
2023-12-12T09:26:41.912Z,9.32
2023-12-12T09:27:41.887Z,9.32
2023-12-12T09:28:41.897Z,9.36
2023-12-12T09:29:41.864Z,9.34
2023-12-12T09:30:41.903Z,9.34
2023-12-12T09:31:41.895Z,9.37
2023-12-12T09:32:41.926Z,9.36
2023-12-12T09:33:41.843Z,9.37
2023-12-12T09:34:41.920Z,9.37
2023-12-12T09:35:41.920Z,9.39
2023-12-12T09:36:41.825Z,9.39
2023-12-12T09:37:41.960Z,9.40
2023-12-12T09:38:41.793Z,9.39
2023-12-12T09:39:41.791Z,9.39
2023-12-12T09:40:41.803Z,9.32
2023-12-12T09:41:41.783Z,9.31
2023-12-12T09:42:41.758Z,9.28
2023-12-12T09:43:41.776Z,9.28
2023-12-12T09:44:41.709Z,9.25
2023-12-12T09:45:41.701Z,9.25
2023-12-12T09:46:41.722Z,9.26
2023-12-12T09:47:43.490Z,9.25
2023-12-12T09:48:41.744Z,9.25
2023-12-12T09:49:41.800Z,9.26
2023-12-12T09:50:41.659Z,9.31
2023-12-12T09:51:41.655Z,9.31
2023-12-12T09:52:41.664Z,9.32
2023-12-12T09:53:42.776Z,9.36
2023-12-12T09:54:41.626Z,9.32
2023-12-12T09:55:41.627Z,9.31
2023-12-12T09:56:41.583Z,9.32
2023-12-12T09:57:41.597Z,9.32
2023-12-12T09:58:41.593Z,9.36
2023-12-12T09:59:41.573Z,9.36
2023-12-12T10:00:41.589Z,9.36
2023-12-12T10:01:41.605Z,9.37
2023-12-12T10:02:41.537Z,9.37
2023-12-12T10:03:41.585Z,9.39
2023-12-12T10:04:41.727Z,9.40
2023-12-12T10:05:41.554Z,9.41
2023-12-12T10:06:41.520Z,9.43
2023-12-12T10:07:41.581Z,9.46
2023-12-12T10:08:41.516Z,9.46
2023-12-12T10:09:41.470Z,9.46
2023-12-12T10:10:41.590Z,9.46
2023-12-12T10:11:41.451Z,9.46
2023-12-12T10:12:41.440Z,9.51
2023-12-12T10:13:41.477Z,9.54
2023-12-12T10:14:41.439Z,9.55
2023-12-12T10:15:41.441Z,9.58
2023-12-12T10:16:41.425Z,9.59
2023-12-12T10:17:41.421Z,9.62
2023-12-12T10:18:41.518Z,9.62
2023-12-12T10:19:41.541Z,9.64
2023-12-12T10:20:41.395Z,9.65
2023-12-12T10:21:41.404Z,9.68
2023-12-12T10:22:41.395Z,9.68
2023-12-12T10:23:41.333Z,9.65
2023-12-12T10:24:41.321Z,9.65
2023-12-12T10:25:41.384Z,9.65
2023-12-12T10:26:41.299Z,9.65
2023-12-12T10:27:41.308Z,9.64
2023-12-12T10:28:41.328Z,9.65
2023-12-12T10:29:41.267Z,9.65
2023-12-12T10:30:41.296Z,9.68
2023-12-12T10:31:41.254Z,9.72
2023-12-12T10:32:41.259Z,9.74
2023-12-12T10:33:41.246Z,9.76
2023-12-12T10:34:42.295Z,9.77
2023-12-12T10:35:41.190Z,9.79
2023-12-12T10:36:41.191Z,9.79
2023-12-12T10:37:41.213Z,9.77
2023-12-12T10:38:41.204Z,9.79
2023-12-12T10:39:41.199Z,9.80
2023-12-12T10:40:41.238Z,9.79
2023-12-12T10:41:41.151Z,9.77
2023-12-12T10:42:41.151Z,9.76
2023-12-12T10:43:41.209Z,9.76
2023-12-12T10:44:41.117Z,9.73
2023-12-12T10:45:41.121Z,9.73
2023-12-12T10:46:41.314Z,9.72
2023-12-12T10:47:41.136Z,9.69
2023-12-12T10:48:41.134Z,9.65
2023-12-12T10:49:41.085Z,9.65
2023-12-12T10:50:41.098Z,9.59
2023-12-12T10:51:41.066Z,9.55
2023-12-12T10:52:41.057Z,9.55
2023-12-12T10:53:41.017Z,9.55
2023-12-12T10:54:41.085Z,9.56
2023-12-12T10:55:41.057Z,9.55
2023-12-12T10:56:41.008Z,9.55
2023-12-12T10:57:41.241Z,9.54
2023-12-12T10:58:40.997Z,9.55
2023-12-12T10:59:58.735Z,9.54
2023-12-12T11:00:40.971Z,9.51
2023-12-12T11:01:41.073Z,9.50
2023-12-12T11:02:40.929Z,9.50
2023-12-12T11:03:40.976Z,9.50
2023-12-12T11:04:40.943Z,9.50
2023-12-12T11:05:40.946Z,9.51
2023-12-12T11:06:40.883Z,9.51
2023-12-12T11:07:40.949Z,9.48
2023-12-12T11:08:40.868Z,9.50
2023-12-12T11:09:40.912Z,9.47
2023-12-12T11:10:40.866Z,9.48
2023-12-12T11:11:40.862Z,9.48
2023-12-12T11:12:40.833Z,9.48
2023-12-12T11:13:40.989Z,9.50
2023-12-12T11:14:40.806Z,9.50
2023-12-12T11:15:40.826Z,9.50
2023-12-12T11:16:40.941Z,9.48
2023-12-12T11:17:40.849Z,9.54
2023-12-12T11:18:40.929Z,9.54
2023-12-12T11:19:40.791Z,9.55
2023-12-12T11:20:40.770Z,9.56
2023-12-12T11:21:40.780Z,9.61
2023-12-12T11:22:40.995Z,9.62
2023-12-12T11:23:40.712Z,9.66
2023-12-12T11:24:40.736Z,9.69
2023-12-12T11:25:40.770Z,9.76
2023-12-12T11:26:40.833Z,9.80
2023-12-12T11:27:40.689Z,9.80
2023-12-12T11:28:40.686Z,9.83
2023-12-12T11:29:40.639Z,9.80
2023-12-12T11:30:40.859Z,9.80
2023-12-12T11:31:40.752Z,9.76
2023-12-12T11:32:40.724Z,9.77
2023-12-12T11:33:40.781Z,9.77
2023-12-12T11:34:40.707Z,9.77
2023-12-12T11:35:40.598Z,9.79
2023-12-12T11:36:40.582Z,9.80
2023-12-12T11:37:40.670Z,9.79
2023-12-12T11:38:40.554Z,9.82
2023-12-12T11:39:40.555Z,9.82
2023-12-12T11:40:40.577Z,9.84
2023-12-12T11:41:40.523Z,9.84
2023-12-12T11:42:40.517Z,9.84
2023-12-12T11:43:40.551Z,9.84
2023-12-12T11:44:40.508Z,9.84
2023-12-12T11:45:40.509Z,9.84
2023-12-12T11:46:40.539Z,9.84
2023-12-12T11:47:40.547Z,9.82
2023-12-12T11:48:40.504Z,9.80
2023-12-12T11:49:40.538Z,9.77
2023-12-12T11:50:40.474Z,9.76
2023-12-12T11:51:40.446Z,9.74
2023-12-12T11:52:40.622Z,9.76
2023-12-12T11:53:40.404Z,9.74
2023-12-12T11:54:40.392Z,9.74
2023-12-12T11:55:40.478Z,9.72
2023-12-12T11:56:40.386Z,9.72
2023-12-12T11:57:40.379Z,9.69
2023-12-12T11:58:40.446Z,9.69
2023-12-12T11:59:40.372Z,9.69
2023-12-12T12:00:40.388Z,9.68
2023-12-12T12:01:40.435Z,9.69
2023-12-12T12:02:40.311Z,9.68
2023-12-12T12:03:40.429Z,9.68
2023-12-12T12:04:40.374Z,9.69
2023-12-12T12:05:40.478Z,9.69
2023-12-12T12:06:40.297Z,9.68
2023-12-12T12:07:40.390Z,9.69
2023-12-12T12:08:40.253Z,9.69
2023-12-12T12:09:40.257Z,9.69
2023-12-12T12:10:40.304Z,9.69
2023-12-12T12:11:40.244Z,9.69
2023-12-12T12:12:40.195Z,9.72
2023-12-12T12:13:40.255Z,9.72
2023-12-12T12:14:40.195Z,9.69
2023-12-12T12:15:40.212Z,9.72
2023-12-12T12:16:40.204Z,9.68
2023-12-12T12:17:40.241Z,9.68
2023-12-12T12:18:40.322Z,9.68
2023-12-12T12:19:42.686Z,9.68
2023-12-12T12:20:40.124Z,9.68
2023-12-12T12:21:40.182Z,9.65
2023-12-12T12:22:40.177Z,9.66
2023-12-12T12:23:40.891Z,9.65
2023-12-12T12:24:40.092Z,9.65
2023-12-12T12:25:40.098Z,9.66
2023-12-12T12:26:40.064Z,9.65
2023-12-12T12:27:40.103Z,9.66
2023-12-12T12:28:40.132Z,9.65
2023-12-12T12:29:40.062Z,9.65
2023-12-12T12:30:40.044Z,9.66
2023-12-12T12:31:42.665Z,9.64
2023-12-12T12:32:40.052Z,9.65
2023-12-12T12:33:40.015Z,9.65
2023-12-12T12:34:40.109Z,9.66
2023-12-12T12:35:40.010Z,9.64
2023-12-12T12:36:40.004Z,9.66
2023-12-12T12:37:39.999Z,9.66
2023-12-12T12:38:39.947Z,9.68
2023-12-12T12:39:39.951Z,9.69
2023-12-12T12:40:40.194Z,9.68
2023-12-12T12:41:39.925Z,9.69
2023-12-12T12:42:39.905Z,9.68
2023-12-12T12:43:39.934Z,9.72
2023-12-12T12:44:39.882Z,9.72
2023-12-12T12:45:39.893Z,9.73
2023-12-12T12:46:39.939Z,9.72
2023-12-12T12:47:39.911Z,9.73
2023-12-12T12:48:39.954Z,9.73
2023-12-12T12:49:39.925Z,9.72
2023-12-12T12:50:39.820Z,9.69
2023-12-12T12:51:39.876Z,9.68
2023-12-12T12:52:39.854Z,9.68
2023-12-12T12:53:41.589Z,9.68
2023-12-12T12:54:39.800Z,9.66
2023-12-12T12:55:39.871Z,9.68
2023-12-12T12:56:39.760Z,9.64
2023-12-12T12:57:39.798Z,9.65
2023-12-12T12:58:39.754Z,9.64
2023-12-12T12:59:39.731Z,9.62
2023-12-12T13:00:42.051Z,9.61
2023-12-12T13:01:39.789Z,9.64
2023-12-12T13:02:39.714Z,9.62
2023-12-12T13:03:39.755Z,9.61
2023-12-12T13:04:39.724Z,9.62
2023-12-12T13:05:39.669Z,9.62
2023-12-12T13:06:39.724Z,9.65
2023-12-12T13:07:39.735Z,9.65
2023-12-12T13:08:39.687Z,9.66
2023-12-12T13:09:39.660Z,9.65
2023-12-12T13:10:47.134Z,9.68
2023-12-12T13:11:39.638Z,9.68
2023-12-12T13:12:39.593Z,9.68
2023-12-12T13:13:39.614Z,9.66
2023-12-12T13:14:39.594Z,9.68
2023-12-12T13:15:39.568Z,9.68
2023-12-12T13:17:39.630Z,9.65
2023-12-12T13:18:39.529Z,9.65
2023-12-12T13:19:39.672Z,9.65